KFOT - Fortuna, California, USA
Updated: Thu, 22-Jun-2017 1:15pm PDT
Clear
Clear
 Wind from WNW
Wind: WNW 14 mph , 22 km/h
Temperature: 66°F , 19°C
Dew Point: 50°F , 10°C
Humidity: 56%
Barometer: 29.86 inHg , 1011.2 hPa
Clouds: Clear
Visibility: 10 miles , 16 km
2017/06/22 20:15 KFOT 222015Z AUTO 30012KT 10SM CLR 19/10 A2986 RMK AO1

Metar display script from Saratoga-Weather.org